EYVIEYPA

Guest
Details From EYVI - Vilnius
To EYPA - PALANGA INTL
Flight Number -
Tags generated
Created
Modified
Stats Distance 164 nm / 304 km
Max Altitude 13,900 ft / 4,237 m
Waypoints 3
Social Downloads 0
Likes 0
Share

Download

Looking for another format? Having issues loading an existing format? Contact us
Advertisement - Login to hide

Notes

Basic altitude profile: - Ascent Rate: 2500ft/min - Ascent Speed: 250kts - Cruise Altitude: 35000ft - Cruise Speed: 420kts - Descent Rate: 1500ft/min - Descent Speed: 250kts Options: - Use NATs: yes - Use PACOTS: yes - Use low airways: no - Use high airways: yes

Route

EYVI TOTRA EYPA

ID Type Via Altitude (ft/m) Position (lat/lon) Dist (leg/tot) Name
O EYVI APT - 0 / 0 54.63420 / 25.28570 - / 0 nm Vilnius
TOTRA FIX - 13,900 / 4,237 55.44310 / 22.77110 99 / 99 nm
O EYPA APT - 0 / 0 55.97310 / 21.09390 65 / 164 nm PALANGA INTL

Altitude Profile

Advertisement - Login to hide

Weather


0- 5 10 15 20 25 30 35+ Temperature / °C

Clouds and Precipitation
Forecast for 2024-04-15 18:00 UTC. Updated 2 months ago

Ground ~20,000 ft ~40,000 ft Winds

EYVI

Details ICAO EYVI (VNO)
Name Vilnius
Region Lithuania
Timezone Europe/Vilnius (UTC+3.0)
Stats Elevation 645 ft / 197 m (AMSL)
Location 54.634200° 25.285700°
Runways 1
Magnetic Variation 8.342° E

METAR

EYVI 201920Z 28008KT 250V310 CAVOK 17/10 Q1018 NOSIG

Decode

TAF

TAF EYVI 201702Z 2018/2118 28012KT 9000 SCT040 BECMG 2018/2020 VRB04KT NSC BECMG 2108/2110 28012KT

Decode

Departure Runways

ID Width Length Bearing (true/mag) Surface Threshold Overrun Markings Lighting
01 164 ft / 50 m 8,259 ft / 2,517 m 21.85° / 13.51° ASPHALT 0 ft / 0 m 194 ft / 59 m PREC-APP CENTERLINE EDGE THRESHOLD ALSF-II REIL-OMNI
19 164 ft / 50 m 8,259 ft / 2,517 m 201.86° / 193.52° ASPHALT 0 ft / 0 m 194 ft / 59 m PREC-APP CENTERLINE EDGE THRESHOLD ALSF-I REIL-OMNI

EYPA

Details ICAO EYPA (PLQ)
Name PALANGA INTL
Region Lithuania
Timezone Europe/Vilnius (UTC+3.0)
Stats Elevation 33 ft / 10 m (AMSL)
Location 55.973100° 21.093900°
Runways 1
Magnetic Variation 7.449° E

METAR

EYPA 201920Z VRB05G15KT 9999 BKN015 15/11 Q1017

Decode

TAF

TAF EYPA 201702Z 2018/2118 VRB05KT 9000 BKN015 BECMG 2020/2022 SCT020

Decode

Destination Runways

ID Width Length Bearing (true/mag) Surface Threshold Overrun Markings Lighting
01 148 ft / 45 m 7,487 ft / 2,282 m 12.67° / 5.23° ASPHALT 515 ft / 157 m 0 ft / 0 m APP CENTERLINE EDGE THRESHOLD MALSF
19 148 ft / 45 m 7,487 ft / 2,282 m 192.68° / 185.23° ASPHALT 492 ft / 150 m 0 ft / 0 m APP CENTERLINE EDGE THRESHOLD MALSF

Approach Navaids

Runway Type Ident Frequency Range Bearing (true/mag) Slope Elevation
19 GS IAN 110.10 MHz 10 nm / 19 km 193.41° / 185.96 ° 3.00° 33 ft / 10 m (AMSL)
19 DME IAN 110.10 MHz 18 nm / 33 km - - 39 ft / 12 m (AMSL)
19 MM MM - - 192.71° / 185.26 ° - 33 ft / 10 m (AMSL)
19 LOC-ILS IAN 110.10 MHz 18 nm / 33 km 192.71° / 185.26 ° - 33 ft / 10 m (AMSL)

Popular Alternatives